Time;durP1;ratioP1;P1;durP2;ratioP2;P2;SDS_P1;SDS_P2;PMS_P1;PMS_P2;Temp;Humidity;BMP_temperature;BMP_pressure;BME280_temperature;BME280_humidity;BME280_pressure;Samples;Min_cycle;Max_cycle;Signal;HPM_P1;HPM_P2
2022/08/21 00:01:26;;;;;;;7.45;4.25;;;;;;;18.55;100.00;99192.28;4358296;32;34716;-71
2022/08/21 00:04:13;;;;;;;6.80;3.95;;;;;;;18.47;100.00;99193.34;4363685;32;34976;-71
2022/08/21 00:07:07;;;;;;;6.80;4.55;;;;;;;18.49;100.00;99193.78;4368421;32;34569;-71
2022/08/21 00:09:53;;;;;;;5.32;3.55;;;;;;;18.18;100.00;99202.03;4361879;32;35115;-71
2022/08/21 00:12:40;;;;;;;5.82;4.20;;;;;;;18.49;100.00;99200.13;4362588;32;33454;-71
2022/08/21 00:15:29;;;;;;;7.68;4.50;;;;;;;18.40;100.00;99188.50;4362335;32;35028;-71
2022/08/21 00:18:15;;;;;;;4.82;3.92;;;;;;;18.27;100.00;99187.13;4364201;32;34746;-71
2022/08/21 00:21:03;;;;;;;5.25;3.83;;;;;;;18.53;100.00;99189.09;4361274;32;34962;-71
2022/08/21 00:23:49;;;;;;;5.53;4.12;;;;;;;18.61;100.00;99176.91;4353994;32;34541;-71
2022/08/21 00:26:35;;;;;;;6.10;3.95;;;;;;;18.44;100.00;99169.94;4361519;32;35633;-71
2022/08/21 00:29:22;;;;;;;5.25;3.87;;;;;;;18.32;100.00;99184.03;4361392;32;34606;-70
2022/08/21 00:32:08;;;;;;;6.25;4.22;;;;;;;18.34;100.00;99176.94;4361670;32;34174;-71
2022/08/21 00:34:54;;;;;;;6.65;4.47;;;;;;;18.42;100.00;99178.66;4365664;32;34659;-71
2022/08/21 00:37:42;;;;;;;8.90;5.57;;;;;;;18.56;100.00;99177.25;4362179;32;35049;-71
2022/08/21 00:40:36;;;;;;;6.37;4.22;;;;;;;18.17;100.00;99188.56;4362570;32;34691;-72
2022/08/21 00:43:29;;;;;;;7.12;4.93;;;;;;;18.37;100.00;99183.72;4361628;32;34206;-72
2022/08/21 00:46:15;;;;;;;6.82;5.03;;;;;;;18.54;100.00;99182.38;4361897;32;34726;-71
2022/08/21 00:49:03;;;;;;;9.65;4.87;;;;;;;18.42;100.00;99184.19;4367363;32;35097;-71
2022/08/21 00:51:53;;;;;;;7.03;4.75;;;;;;;18.45;100.00;99177.09;4354662;32;34652;-71
2022/08/21 00:54:41;;;;;;;8.15;4.78;;;;;;;18.33;100.00;99175.34;4361380;32;34929;-72
2022/08/21 00:57:32;;;;;;;;;;;;;;;18.55;100.00;99176.44;4355346;32;34716;-71
2022/08/21 01:00:24;;;;;;;8.18;5.15;;;;;;;18.50;100.00;99171.22;4357256;32;35170;-71
2022/08/21 01:03:16;;;;;;;10.07;5.78;;;;;;;18.32;100.00;99167.38;4354990;32;35757;-71
2022/08/21 01:06:04;;;;;;;8.80;5.43;;;;;;;18.54;100.00;99168.50;4360369;32;34238;-70
2022/08/21 01:08:50;;;;;;;7.47;4.72;;;;;;;18.46;100.00;99173.13;4356199;32;35504;-71
2022/08/21 01:11:37;;;;;;;7.72;4.68;;;;;;;18.82;100.00;99171.66;4363723;32;35969;-71
2022/08/21 01:14:23;;;;;;;7.95;5.03;;;;;;;18.64;100.00;99167.81;4360863;32;34920;-71
2022/08/21 01:17:11;;;;;;;9.93;5.53;;;;;;;18.99;100.00;99166.72;4352048;32;34316;-71
2022/08/21 01:19:58;;;;;;;9.20;5.82;;;;;;;18.43;100.00;99166.38;4355519;32;35206;-71
2022/08/21 01:22:45;;;;;;;13.80;7.53;;;;;;;18.31;100.00;99163.03;4361650;32;34616;-71
2022/08/21 01:25:32;;;;;;;11.20;6.87;;;;;;;18.15;100.00;99154.87;4352170;32;35633;-71
2022/08/21 01:28:19;;;;;;;10.18;6.15;;;;;;;18.32;100.00;99159.88;4360204;32;34162;-71
2022/08/21 01:31:07;;;;;;;9.27;6.12;;;;;;;18.42;100.00;99159.22;4360943;32;35387;-70
2022/08/21 01:33:54;;;;;;;7.97;5.72;;;;;;;18.47;100.00;99163.66;4350969;32;35013;-71
2022/08/21 01:36:42;;;;;;;12.95;6.55;;;;;;;18.38;100.00;99165.88;4355988;32;35533;-71
2022/08/21 01:39:29;;;;;;;10.45;6.50;;;;;;;18.34;100.00;99153.97;4365791;32;34174;-71
2022/08/21 01:42:15;;;;;;;11.27;7.03;;;;;;;18.40;100.00;99155.22;4360102;32;34273;-71
2022/08/21 01:45:02;;;;;;;11.50;6.32;;;;;;;18.48;100.00;99158.91;4355677;32;34695;-71
2022/08/21 01:47:48;;;;;;;11.43;6.37;;;;;;;18.36;100.00;99157.97;4355071;32;34725;-71
2022/08/21 01:50:34;;;;;;;10.55;6.57;;;;;;;18.15;100.00;99160.41;4360694;32;33952;-71
2022/08/21 01:53:20;;;;;;;10.93;6.55;;;;;;;18.47;100.00;99147.03;4360933;32;34302;-72
2022/08/21 01:56:18;;;;;;;13.68;7.60;;;;;;;18.18;100.00;99152.12;4355769;32;34887;-72
2022/08/21 01:59:05;;;;;;;12.70;8.23;;;;;;;18.33;100.00;99142.06;4360135;32;33462;-71
2022/08/21 02:01:53;;;;;;;11.75;6.53;;;;;;;18.22;100.00;99149.44;4358986;32;34253;-70
2022/08/21 02:04:40;;;;;;;11.73;7.22;;;;;;;18.41;100.00;99151.28;4358363;32;33490;-71
2022/08/21 02:07:39;;;;;;;13.45;7.28;;;;;;;18.25;100.00;99148.69;4359352;32;35819;-70
2022/08/21 02:10:30;;;;;;;10.40;6.78;;;;;;;18.32;100.00;99146.00;4359653;32;37052;-71
2022/08/21 02:13:17;;;;;;;12.07;7.03;;;;;;;18.52;100.00;99146.66;4360122;32;34903;-71
2022/08/21 02:16:04;;;;;;;10.63;6.45;;;;;;;18.61;100.00;99140.84;4358910;32;34792;-70
2022/08/21 02:18:50;;;;;;;11.98;7.15;;;;;;;18.32;100.00;99145.22;4359106;32;34949;-70
2022/08/21 02:21:36;;;;;;;11.40;6.60;;;;;;;18.11;100.00;99137.41;4350108;32;34638;-71
2022/08/21 02:24:22;;;;;;;13.20;7.57;;;;;;;18.46;100.00;99141.84;4357172;32;34167;-71
2022/08/21 02:27:09;;;;;;;13.75;6.82;;;;;;;18.32;100.00;99145.22;4360345;32;35508;-71
2022/08/21 02:29:57;;;;;;;11.88;7.10;;;;;;;18.38;100.00;99149.25;4359428;32;36002;-71
2022/08/21 02:32:44;;;;;;;13.48;8.60;;;;;;;18.76;100.00;99159.31;4359784;32;34663;-71
2022/08/21 02:35:30;;;;;;;11.85;7.05;;;;;;;18.59;100.00;99155.09;4360040;32;33695;-71
2022/08/21 02:38:20;;;;;;;11.18;7.12;;;;;;;18.32;100.00;99159.88;4359028;32;35168;-71
2022/08/21 02:41:09;;;;;;;11.12;7.62;;;;;;;18.19;100.00;99152.97;4365327;32;35906;-71
2022/08/21 02:43:55;;;;;;;13.77;8.00;;;;;;;18.46;100.00;99150.94;4360302;32;34346;-70
2022/08/21 02:46:41;;;;;;;12.23;7.43;;;;;;;18.41;100.00;99149.31;4360201;32;34188;-71
2022/08/21 02:49:28;;;;;;;12.88;7.93;;;;;;;18.35;100.00;99150.78;4359252;32;34659;-70
2022/08/21 02:52:14;;;;;;;13.95;7.03;;;;;;;18.62;100.00;99142.44;4359590;32;35015;-70
2022/08/21 02:55:00;;;;;;;12.50;7.93;;;;;;;18.51;100.00;99139.53;4359360;32;34648;-71
2022/08/21 02:57:48;;;;;;;16.05;8.63;;;;;;;18.26;100.00;99147.50;4359818;32;33685;-71
2022/08/21 03:00:36;;;;;;;13.68;7.72;;;;;;;18.00;100.00;99144.75;4360006;32;35419;-70
2022/08/21 03:03:22;;;;;;;13.02;7.68;;;;;;;18.45;100.00;99143.81;4355124;32;33859;-71
2022/08/21 03:06:11;;;;;;;14.50;7.97;;;;;;;18.26;100.00;99139.19;4360258;32;35805;-71
2022/08/21 03:08:57;;;;;;;11.73;7.60;;;;;;;18.13;100.00;99135.84;4354581;32;35199;-71
2022/08/21 03:11:44;;;;;;;11.93;7.07;;;;;;;18.29;100.00;99143.97;4359592;32;34782;-71
2022/08/21 03:14:30;;;;;;;10.73;6.90;;;;;;;18.65;100.00;99147.25;4355507;32;34425;-70
2022/08/21 03:17:16;;;;;;;14.07;7.78;;;;;;;18.53;100.00;99141.94;4359330;32;35586;-71
2022/08/21 03:20:04;;;;;;;14.18;8.30;;;;;;;18.33;100.00;99142.06;4360475;32;34155;-71
2022/08/21 03:22:51;;;;;;;12.43;8.70;;;;;;;18.26;100.00;99144.72;4362626;32;35695;-71
2022/08/21 03:25:38;;;;;;;15.18;8.73;;;;;;;18.00;100.00;99141.97;4358713;32;35974;-70
2022/08/21 03:28:27;;;;;;;12.57;8.25;;;;;;;18.11;100.00;99142.94;4361938;32;34231;-71
2022/08/21 03:31:14;;;;;;;14.55;9.00;;;;;;;18.20;100.00;99151.78;4356426;32;34176;-71
2022/08/21 03:34:00;;;;;;;15.43;9.38;;;;;;;18.18;100.00;99154.13;4361453;32;34273;-72
2022/08/21 03:36:48;;;;;;;16.50;9.73;;;;;;;18.13;100.00;99144.16;4359039;32;35126;-71
2022/08/21 03:39:35;;;;;;;15.50;9.80;;;;;;;17.89;100.00;99153.69;4357813;32;35399;-71
2022/08/21 03:42:21;;;;;;;16.23;9.60;;;;;;;17.88;100.00;99149.31;4359397;32;34782;-71
2022/08/21 03:45:09;;;;;;;14.15;8.98;;;;;;;18.30;100.00;99153.91;4353513;32;34430;-71
2022/08/21 03:47:58;;;;;;;17.98;9.63;;;;;;;17.98;100.00;99156.19;4365473;32;35036;-71
2022/08/21 03:50:46;;;;;;;16.65;9.18;;;;;;;18.08;100.00;99152.78;4350389;32;34809;-71
2022/08/21 03:53:33;;;;;;;16.15;10.10;;;;;;;18.67;100.00;99150.44;4360365;32;35270;-71
2022/08/21 03:56:20;;;;;;;18.00;9.95;;;;;;;18.40;100.00;99158.78;4362285;32;34638;-70
2022/08/21 03:59:06;;;;;;;15.77;9.57;;;;;;;18.03;100.00;99166.19;4359852;32;36028;-71
2022/08/21 04:01:58;;;;;;;18.75;10.25;;;;;;;18.33;100.00;99164.25;4359215;32;34653;-71
2022/08/21 04:04:45;;;;;;;17.15;11.18;;;;;;;17.94;100.00;99158.12;4359145;32;33338;-71
2022/08/21 04:07:31;;;;;;;15.27;9.90;;;;;;;18.19;100.00;99164.84;4359392;32;34780;-71
2022/08/21 04:10:18;;;;;;;17.50;10.48;;;;;;;18.18;100.00;99165.22;4359444;32;35618;-71
2022/08/21 04:13:05;;;;;;;16.15;10.02;;;;;;;17.97;100.00;99166.47;4359040;32;34598;-71
2022/08/21 04:15:51;;;;;;;18.17;10.65;;;;;;;18.20;100.00;99165.66;4359517;32;34309;-71
2022/08/21 04:18:38;;;;;;;16.73;10.43;;;;;;;18.05;100.00;99174.94;4351749;32;35569;-69
2022/08/21 04:21:24;;;;;;;19.48;10.13;;;;;;;18.17;100.00;99175.50;4359219;32;34844;-71
2022/08/21 04:24:11;;;;;;;15.25;10.57;;;;;;;17.96;100.00;99173.22;4358729;32;35311;-71
2022/08/21 04:26:57;;;;;;;16.23;9.80;;;;;;;18.16;100.00;99181.44;4359929;32;34737;-71
2022/08/21 04:29:44;;;;;;;14.63;9.00;;;;;;;18.15;100.00;99174.28;4359650;32;35524;-72
2022/08/21 04:32:30;;;;;;;13.82;9.40;;;;;;;18.26;100.00;99185.53;4359504;32;36033;-70
2022/08/21 04:35:19;;;;;;;16.48;9.52;;;;;;;18.47;100.00;99182.25;4359716;32;35580;-71
2022/08/21 04:38:05;;;;;;;13.82;8.73;;;;;;;18.16;100.00;99184.22;4360524;32;35137;-71
2022/08/21 04:40:52;;;;;;;13.82;8.85;;;;;;;18.54;100.00;99182.38;4359784;32;34685;-71
2022/08/21 04:43:39;;;;;;;12.82;8.35;;;;;;;18.44;100.00;99192.13;4352905;32;36015;-71
2022/08/21 04:46:25;;;;;;;11.70;8.02;;;;;;;18.50;100.00;99193.44;4350568;32;35033;-70
2022/08/21 04:49:12;;;;;;;14.65;8.18;;;;;;;18.27;100.00;99199.03;4359749;32;33069;-70
2022/08/21 04:51:58;;;;;;;14.30;8.40;;;;;;;18.01;100.00;99202.56;4359398;32;34653;-71
2022/08/21 04:54:45;;;;;;;12.10;7.65;;;;;;;18.26;100.00;99191.06;4365413;32;36119;-71
2022/08/21 04:57:31;;;;;;;14.20;6.87;;;;;;;18.23;100.00;99198.16;4361183;32;35741;-71
2022/08/21 05:00:33;;;;;;;11.90;6.97;;;;;;;18.54;100.00;99190.69;4364592;32;34724;-71
2022/08/21 05:03:21;;;;;;;10.02;6.50;;;;;;;18.20;100.00;99204.47;4357365;32;34681;-72
2022/08/21 05:06:10;;;;;;;10.15;6.40;;;;;;;18.62;100.00;99189.62;4361625;32;36055;-70
2022/08/21 05:08:57;;;;;;;10.43;6.53;;;;;;;18.46;100.00;99194.53;4356750;32;34676;-70
2022/08/21 05:11:48;;;;;;;9.10;6.00;;;;;;;18.14;100.00;99200.41;4353670;32;35147;-71
2022/08/21 05:14:34;;;;;;;9.57;5.57;;;;;;;18.30;100.00;99203.84;4353513;32;34664;-71
2022/08/21 05:17:21;;;;;;;10.15;5.62;;;;;;;18.40;100.00;99189.31;4364674;32;35983;-71
2022/08/21 05:20:09;;;;;;;8.18;5.28;;;;;;;18.64;100.00;99198.34;4360422;32;34544;-71
2022/08/21 05:22:56;;;;;;;11.02;5.80;;;;;;;18.74;100.00;99199.72;4364456;32;34756;-70
2022/08/21 05:25:43;;;;;;;8.63;4.97;;;;;;;18.85;100.00;99201.44;4358414;32;34750;-71
2022/08/21 05:28:31;;;;;;;10.10;5.45;;;;;;;18.39;100.00;99201.59;4360855;32;34804;-71
2022/08/21 05:31:18;;;;;;;8.15;5.12;;;;;;;18.91;100.00;99210.25;4357733;32;34590;-71
2022/08/21 05:34:06;;;;;;;8.68;5.28;;;;;;;18.74;100.00;99205.25;4360672;32;35004;-71
2022/08/21 05:36:52;;;;;;;9.65;5.22;;;;;;;18.62;100.00;99209.03;4360080;32;34206;-71
2022/08/21 05:39:38;;;;;;;8.23;5.50;;;;;;;18.76;100.00;99203.72;4360916;32;34791;-71
2022/08/21 05:42:44;;;;;;;8.57;5.37;;;;;;;18.47;100.00;99210.00;4361424;32;33776;-70
2022/08/21 05:45:40;;;;;;;8.00;5.07;;;;;;;18.66;100.00;99210.66;4359995;32;35066;-70
2022/08/21 05:48:29;;;;;;;6.85;4.28;;;;;;;18.33;100.00;99214.19;4351536;32;34704;-71
2022/08/21 05:51:17;;;;;;;10.48;5.07;;;;;;;18.75;100.00;99207.66;4365819;32;35014;-70
2022/08/21 05:54:03;;;;;;;8.05;5.22;;;;;;;18.35;100.00;99211.81;4359770;32;34810;-71
2022/08/21 05:56:49;;;;;;;7.05;4.70;;;;;;;18.83;100.00;99203.78;4359841;32;34396;-71
2022/08/21 05:59:35;;;;;;;8.82;4.90;;;;;;;18.36;100.00;99196.78;4360061;32;34388;-71
2022/08/21 06:02:22;;;;;;;9.55;4.72;;;;;;;18.62;100.00;99195.16;4361820;32;34989;-71
2022/08/21 06:05:08;;;;;;;9.65;4.45;;;;;;;18.84;100.00;99193.47;4360410;32;34744;-72
2022/08/21 06:07:55;;;;;;;6.87;4.55;;;;;;;18.94;100.00;99197.59;4361054;32;34197;-71
2022/08/21 06:10:42;;;;;;;8.25;4.85;;;;;;;18.33;100.00;99205.84;4359992;32;34667;-71
2022/08/21 06:13:28;;;;;;;8.35;5.40;;;;;;;18.34;100.00;99203.88;4352999;32;34892;-71
2022/08/21 06:16:16;;;;;;;7.25;4.57;;;;;;;18.37;100.00;99198.38;4360091;32;35497;-71
2022/08/21 06:19:02;;;;;;;6.85;4.75;;;;;;;18.41;100.00;99196.47;4352268;32;33903;-70
2022/08/21 06:21:49;;;;;;;7.57;4.60;;;;;;;18.24;100.00;99205.31;4362523;32;35488;-69
2022/08/21 06:24:35;;;;;;;9.55;4.72;;;;;;;18.29;100.00;99218.06;4360012;32;36124;-70
2022/08/21 06:27:22;;;;;;;9.82;5.43;;;;;;;18.55;100.00;99203.38;4355541;32;34542;-70
2022/08/21 06:30:12;;;;;;;7.40;4.40;;;;;;;18.86;100.00;99205.81;4363518;32;35168;-71
2022/08/21 06:32:58;;;;;;;7.35;4.97;;;;;;;18.78;100.00;99200.53;4352510;32;34316;-71
2022/08/21 06:35:45;;;;;;;7.25;4.62;;;;;;;18.33;100.00;99214.19;4350590;32;35935;-71
2022/08/21 06:38:31;;;;;;;5.93;4.30;;;;;;;18.48;100.00;99215.19;4352765;32;34709;-71
2022/08/21 06:41:19;;;;;;;7.80;5.30;;;;;;;18.71;100.00;99211.53;4361022;32;34677;-71
2022/08/21 06:44:11;;;;;;;7.55;4.65;;;;;;;18.60;100.00;99212.19;4352741;32;34703;-72
2022/08/21 06:46:58;;;;;;;6.60;4.62;;;;;;;18.83;100.00;99209.34;4360776;32;33941;-71
2022/08/21 06:49:44;;;;;;;8.57;5.22;;;;;;;19.11;100.00;99205.31;4359848;32;34944;-70
2022/08/21 06:52:31;;;;;;;6.80;4.82;;;;;;;18.91;100.00;99220.53;4358346;32;35215;-70
2022/08/21 06:55:17;;;;;;;7.87;5.03;;;;;;;18.66;100.00;99220.97;4359677;32;35670;-71
2022/08/21 06:58:09;;;;;;;6.15;4.00;;;;;;;18.61;100.00;99208.25;4358851;32;35048;-70
2022/08/21 07:00:56;;;;;;;9.82;5.28;;;;;;;19.06;100.00;99213.97;4352578;32;35086;-74
2022/08/21 07:03:46;;;;;;;9.35;5.07;;;;;;;19.04;100.00;99213.56;4362103;32;34652;-70
2022/08/21 07:06:32;;;;;;;9.65;5.10;;;;;;;18.90;100.00;99213.38;4359395;32;34756;-70
2022/08/21 07:09:18;;;;;;;8.35;4.97;;;;;;;19.08;100.00;99214.41;4351866;32;34975;-70
2022/08/21 07:12:10;;;;;;;;;;;;;;;18.76;100.00;99223.13;4360043;32;34649;-71
2022/08/21 07:14:56;;;;;;;9.55;4.62;;;;;;;19.00;100.00;99224.63;4367280;32;33980;-70
2022/08/21 07:17:42;;;;;;;8.75;4.87;;;;;;;19.00;100.00;99221.06;4358509;32;34734;-70
2022/08/21 07:20:30;;;;;;;8.13;4.70;;;;;;;19.08;100.00;99217.19;4356986;32;34763;-70
2022/08/21 07:23:38;;;;;;;7.85;4.85;;;;;;;19.41;100.00;99221.13;4356926;32;34354;-71
2022/08/21 07:26:25;;;;;;;7.18;4.87;;;;;;;19.52;100.00;99222.84;4358661;32;33557;-70
2022/08/21 07:29:12;;;;;;;7.72;5.15;;;;;;;19.90;100.00;99208.94;4348954;32;33359;-70
2022/08/21 07:31:59;;;;;;;8.63;5.00;;;;;;;19.41;100.00;99218.34;4357957;32;35024;-70
2022/08/21 07:34:46;;;;;;;10.70;5.43;;;;;;;19.35;100.00;99214.31;4357838;32;35482;-70
2022/08/21 07:37:31;;;;;;;8.50;5.40;;;;;;;19.32;100.00;99213.91;4356065;32;34174;-71
2022/08/21 07:40:18;;;;;;;7.82;5.28;;;;;;;19.93;100.00;99224.84;4356393;32;35604;-71
2022/08/21 07:43:04;;;;;;;9.35;5.53;;;;;;;20.17;100.00;99210.31;4356339;32;35743;-71
2022/08/21 07:45:51;;;;;;;7.60;5.20;;;;;;;19.79;100.00;99206.06;4355657;32;34418;-71
2022/08/21 07:48:37;;;;;;;9.23;5.70;;;;;;;19.89;100.00;99212.88;4359256;32;33833;-70
2022/08/21 07:51:26;;;;;;;8.13;4.85;;;;;;;19.72;100.00;99203.19;4356703;32;35537;-70
2022/08/21 07:54:13;;;;;;;8.60;5.18;;;;;;;20.22;100.00;99198.84;4347632;32;34904;-71
2022/08/21 07:57:03;;;;;;;7.30;4.97;;;;;;;19.98;100.00;99200.28;4357354;32;34704;-71
2022/08/21 07:59:49;;;;;;;8.38;5.00;;;;;;;19.88;100.00;99200.19;4359061;32;34985;-70
2022/08/21 08:02:35;;;;;;;10.90;5.47;;;;;;;20.10;100.00;99199.16;4355736;32;34439;-71
2022/08/21 08:05:25;;;;;;;12.15;6.25;;;;;;;20.39;100.00;99202.94;4355934;32;34486;-70
2022/08/21 08:08:11;;;;;;;8.13;5.18;;;;;;;20.09;100.00;99200.34;4361416;32;34238;-70
2022/08/21 08:10:58;;;;;;;8.10;5.60;;;;;;;20.48;100.00;99202.59;4358309;32;33820;-70
2022/08/21 08:13:50;;;;;;;8.27;5.85;;;;;;;20.40;100.00;99198.16;4347658;32;35521;-71
2022/08/21 08:16:36;;;;;;;7.97;5.50;;;;;;;20.55;100.00;99193.50;4357050;32;36510;-71
2022/08/21 08:19:24;;;;;;;8.40;5.47;;;;;;;20.81;100.00;99196.06;4356612;32;34630;-70
2022/08/21 08:22:15;;;;;;;8.85;5.50;;;;;;;20.43;100.00;99187.09;4355312;32;33878;-70
2022/08/21 08:25:02;;;;;;;8.65;5.90;;;;;;;20.69;100.00;99190.84;4350630;32;34690;-70
2022/08/21 08:27:54;;;;;;;11.63;5.43;;;;;;;20.63;100.00;99189.59;4356277;32;35001;-70
2022/08/21 08:30:40;;;;;;;8.27;5.22;;;;;;;21.24;100.00;99182.28;4356270;32;34696;-69
2022/08/21 08:33:27;;;;;;;6.90;5.07;;;;;;;20.38;100.00;99179.09;4356427;32;35032;-70
2022/08/21 08:36:17;;;;;;;9.55;6.18;;;;;;;20.61;100.00;99178.06;4358242;32;34805;-71
2022/08/21 08:39:05;;;;;;;7.50;4.95;;;;;;;20.50;100.00;99186.31;4360225;32;34956;-71
2022/08/21 08:42:05;;;;;;;8.30;5.37;;;;;;;21.20;100.00;99184.25;4357026;32;35726;-69
2022/08/21 08:45:17;;;;;;;7.07;4.97;;;;;;;21.27;100.00;99189.06;4359917;32;34885;-70
2022/08/21 08:48:06;;;;;;;8.70;5.78;;;;;;;20.97;100.00;99187.34;4358828;32;34619;-70
2022/08/21 08:51:00;;;;;;;9.93;5.10;;;;;;;21.05;100.00;99191.75;4354330;32;35005;-69
2022/08/21 08:53:52;;;;;;;6.97;5.35;;;;;;;21.28;100.00;99191.44;4347048;32;35221;-70
2022/08/21 08:56:38;;;;;;;8.18;5.55;;;;;;;21.30;100.00;99203.00;4351878;32;34086;-70
2022/08/21 08:59:35;;;;;;;8.38;4.90;;;;;;;21.35;100.00;99185.09;4359200;32;34241;-70
2022/08/21 09:02:27;;;;;;;9.57;5.22;;;;;;;21.49;100.00;99190.72;4353289;32;35579;-71
2022/08/21 09:05:22;;;;;;;;;;;;;;;21.24;100.00;99195.41;4359351;32;34622;-71
2022/08/21 09:08:33;;;;;;;9.90;6.65;;;;;;;20.70;100.00;99192.41;4351180;32;34969;-70
2022/08/21 09:11:29;;;;;;;8.75;5.95;;;;;;;20.66;100.00;99195.19;4358914;32;35617;-70
2022/08/21 09:14:46;;;;;;;8.07;5.65;;;;;;;20.99;100.00;99189.75;4358712;32;34507;-69
2022/08/21 09:18:00;;;;;;;9.00;5.97;;;;;;;21.28;100.00;99185.87;4358058;32;34312;-70
2022/08/21 09:21:09;;;;;;;8.77;6.10;;;;;;;21.24;100.00;99189.84;4357047;32;33848;-70
2022/08/21 09:24:12;;;;;;;8.98;6.00;;;;;;;21.65;100.00;99187.56;4359261;32;35332;-70
2022/08/21 09:27:08;;;;;;;9.13;6.57;;;;;;;21.07;100.00;99189.41;4358974;32;34933;-71
2022/08/21 09:29:54;;;;;;;9.90;7.00;;;;;;;20.93;100.00;99180.19;4359588;32;33676;-70
2022/08/21 09:32:41;;;;;;;9.70;6.32;;;;;;;21.14;100.00;99179.47;4358366;32;34731;-71
2022/08/21 09:35:27;;;;;;;9.50;6.40;;;;;;;21.37;100.00;99182.72;4351703;32;34088;-71
2022/08/21 09:38:24;;;;;;;9.57;6.03;;;;;;;21.86;100.00;99181.22;4349458;32;34902;-70
2022/08/21 09:41:12;;;;;;;8.05;6.35;;;;;;;22.13;97.47;99176.00;4350085;32;35277;-69
2022/08/21 09:43:59;;;;;;;10.10;5.70;;;;;;;21.47;100.00;99181.97;4362029;32;34020;-70
2022/08/21 09:46:52;;;;;;;9.90;5.95;;;;;;;22.15;98.36;99184.00;4357921;32;35317;-71
2022/08/21 09:49:42;;;;;;;10.65;7.20;;;;;;;22.35;97.07;99185.19;4357562;32;36069;-70
2022/08/21 09:52:28;;;;;;;9.95;6.12;;;;;;;21.70;99.51;99170.44;4350463;32;35362;-70
2022/08/21 09:57:38;;;;;;;7.85;5.20;;;;;;;21.39;100.00;99169.22;4355733;32;34084;-71
2022/08/21 09:58:32;;;;;;;8.40;5.60;;;;;;;22.40;97.07;99170.81;4353956;32;34549;-71
2022/08/21 10:01:21;;;;;;;7.60;5.43;;;;;;;22.76;95.13;99167.12;4350348;32;34835;-70
2022/08/21 10:04:09;;;;;;;7.30;5.47;;;;;;;22.60;96.32;99178.75;4349328;32;35472;-69
2022/08/21 10:07:06;;;;;;;7.80;5.20;;;;;;;23.31;90.61;99181.25;4352664;32;34112;-70
2022/08/21 10:10:26;;;;;;;9.73;5.80;;;;;;;22.87;94.04;99177.03;4355495;32;33562;-70
2022/08/21 10:13:21;;;;;;;8.85;5.65;;;;;;;22.93;93.39;99180.22;4347808;32;36080;-70
2022/08/21 10:16:28;;;;;;;10.57;6.68;;;;;;;22.95;92.28;99172.25;4361328;32;35508;-70
2022/08/21 10:19:23;;;;;;;9.32;6.22;;;;;;;22.29;96.69;99186.78;4353427;32;34631;-71
2022/08/21 10:22:22;;;;;;;13.00;6.60;;;;;;;22.85;93.53;99176.66;4356096;32;34602;-71
2022/08/21 10:25:31;;;;;;;9.00;5.78;;;;;;;23.15;91.98;99180.94;4356907;32;36046;-71
2022/08/21 10:29:15;;;;;;;8.95;5.60;;;;;;;23.60;89.57;99186.66;4279929;31;6871172;-70
2022/08/21 10:32:55;;;;;;;9.77;6.93;;;;;;;23.46;89.84;99189.56;4489709;31;34926;-70
2022/08/21 10:39:05;;;;;;;9.32;6.70;;;;;;;23.94;88.81;99174.84;4495781;31;34376;-71
2022/08/21 10:42:15;;;;;;;10.05;5.97;;;;;;;23.41;91.12;99176.78;4490591;31;35097;-71
2022/08/21 10:45:25;;;;;;;8.15;4.87;;;;;;;23.47;90.76;99168.78;4495925;31;34451;-70
2022/08/21 10:51:42;;;;;;;10.00;5.78;;;;;;;23.92;87.05;99163.28;4477746;31;33969;-70
2022/08/21 10:54:36;;;;;;;8.57;5.72;;;;;;;24.32;85.45;99161.69;4471830;31;35530;-70
2022/08/21 10:57:41;;;;;;;9.85;5.93;;;;;;;23.61;89.42;99168.69;4490168;31;35383;-70
2022/08/21 11:00:36;;;;;;;9.55;5.53;;;;;;;24.03;88.60;99161.19;4498807;31;34073;-70
2022/08/21 11:03:41;;;;;;;9.45;5.85;;;;;;;24.57;85.06;99155.84;4487606;31;34490;-70
2022/08/21 11:06:31;;;;;;;9.95;6.10;;;;;;;23.32;90.42;99163.28;4484758;31;33628;-69
2022/08/21 11:09:30;;;;;;;8.80;5.40;;;;;;;23.55;90.02;99157.13;4489510;31;35794;-69
2022/08/21 11:12:31;;;;;;;9.05;6.53;;;;;;;24.25;86.37;99150.59;4490554;31;35093;-70
2022/08/21 11:15:55;;;;;;;9.32;5.72;;;;;;;24.41;84.71;99158.41;4490416;31;34741;-69
2022/08/21 11:18:58;;;;;;;8.98;6.05;;;;;;;23.73;87.29;99159.81;4502078;31;33691;-69
2022/08/21 11:22:17;;;;;;;8.68;5.95;;;;;;;23.56;89.49;99158.75;4494574;31;33970;-70
2022/08/21 11:25:37;;;;;;;9.57;5.80;;;;;;;23.70;88.22;99149.44;4503814;31;34103;-70
2022/08/21 11:28:40;;;;;;;8.55;5.55;;;;;;;23.26;89.96;99159.31;4489076;31;34572;-69
2022/08/21 11:31:29;;;;;;;8.48;5.62;;;;;;;23.26;90.81;99156.53;4487517;31;34578;-69
2022/08/21 11:37:45;;;;;;;7.45;4.95;;;;;;;23.30;91.75;99154.50;4480402;31;34080;-69
2022/08/21 11:40:51;;;;;;;10.13;5.90;;;;;;;23.52;89.59;99155.16;4480152;31;34646;-69
2022/08/21 11:43:42;;;;;;;10.50;6.12;;;;;;;23.09;91.30;99154.63;4489235;31;34818;-69
2022/08/21 11:53:42;;;;;;;11.00;6.20;;;;;;;23.48;88.76;99148.00;4486618;31;35522;-72
2022/08/21 11:56:45;;;;;;;8.77;6.15;;;;;;;22.87;92.91;99137.94;4490733;31;35941;-73
2022/08/21 11:59:43;;;;;;;9.63;6.10;;;;;;;23.10;91.19;99140.25;4482040;31;34144;-73
2022/08/21 12:02:36;;;;;;;7.90;6.12;;;;;;;23.39;89.77;99145.66;4483786;31;34232;-72
2022/08/21 12:08:45;;;;;;;20.67;7.75;;;;;;;22.31;96.20;99138.94;4478950;31;35014;-72
2022/08/21 12:18:21;;;;;;;10.10;6.32;;;;;;;22.99;93.48;99144.31;4483051;31;34518;-73
2022/08/21 12:21:29;;;;;;;7.10;5.35;;;;;;;22.58;94.24;99136.47;4478457;31;34096;-72
2022/08/21 12:24:27;;;;;;;9.88;5.93;;;;;;;22.74;93.26;99141.59;4478014;31;34565;-72
2022/08/21 12:27:31;;;;;;;10.18;5.45;;;;;;;22.89;92.79;99141.13;4490779;31;34097;-72
2022/08/21 12:33:31;;;;;;;8.63;5.50;;;;;;;22.47;94.91;99133.72;4467153;32;35074;-72
2022/08/21 12:36:38;;;;;;;9.00;5.87;;;;;;;22.68;95.93;99132.81;4452998;32;34409;-72
2022/08/21 12:39:37;;;;;;;9.93;5.65;;;;;;;22.60;95.55;99126.50;4467013;32;34963;-72
2022/08/21 12:42:41;;;;;;;11.02;5.80;;;;;;;22.33;97.23;99128.97;4454805;32;35687;-72
2022/08/21 12:45:43;;;;;;;9.27;5.97;;;;;;;22.32;95.66;99124.59;4458956;32;34939;-71
2022/08/21 12:48:46;;;;;;;9.13;5.97;;;;;;;22.14;97.30;99134.94;4466977;32;35302;-72
2022/08/21 12:51:55;;;;;;;8.30;5.28;;;;;;;22.43;95.39;99125.34;4461428;32;34867;-72
2022/08/21 12:54:48;;;;;;;10.35;5.03;;;;;;;22.15;95.46;99126.19;4467332;32;35501;-72
2022/08/21 12:57:42;;;;;;;9.00;5.43;;;;;;;22.69;95.62;99126.06;4467266;32;34829;-71
2022/08/21 13:00:53;;;;;;;8.05;4.85;;;;;;;21.71;100.00;99127.41;4463186;32;34503;-71
2022/08/21 13:03:42;;;;;;;12.45;7.55;;;;;;;21.93;100.00;99127.41;4468330;32;34097;-73
2022/08/21 13:15:45;;;;;;;3.58;2.70;;;;;;;22.46;94.91;99107.00;4466243;32;35127;-72
2022/08/21 13:18:54;;;;;;;5.03;2.80;;;;;;;21.93;99.02;99107.88;4469719;32;35427;-72
2022/08/21 13:21:49;;;;;;;4.87;2.47;;;;;;;22.11;98.71;99103.06;4467206;32;34528;-72
2022/08/21 13:24:42;;;;;;;4.18;2.80;;;;;;;21.60;100.00;99107.13;4458707;32;34529;-71
2022/08/21 13:28:02;;;;;;;4.68;2.60;;;;;;;21.67;100.00;99106.31;4470758;31;35050;-72
2022/08/21 13:30:56;;;;;;;3.87;2.33;;;;;;;21.61;100.00;99111.50;4474436;31;34579;-72
2022/08/21 13:33:54;;;;;;;4.62;2.60;;;;;;;21.98;100.00;99110.28;4482535;31;34905;-72
2022/08/21 13:36:47;;;;;;;5.68;2.75;;;;;;;21.54;100.00;99114.28;4472260;31;35291;-72
2022/08/21 13:39:38;;;;;;;4.30;2.72;;;;;;;21.28;100.00;99123.78;4469296;31;34002;-72
2022/08/21 13:45:33;;;;;;;3.62;2.60;;;;;;;21.46;100.00;99119.06;4480106;31;34994;-72
2022/08/21 13:48:30;;;;;;;6.28;2.42;;;;;;;21.26;100.00;99120.56;4463471;31;34551;-71
2022/08/21 13:57:39;;;;;;;3.17;2.35;;;;;;;20.57;100.00;99125.16;4481512;31;34955;-73
2022/08/21 14:04:05;;;;;;;3.87;2.28;;;;;;;20.71;100.00;99113.28;4481505;31;33615;-72
2022/08/21 14:07:03;;;;;;;4.87;2.20;;;;;;;21.35;100.00;99109.87;4482355;31;34391;-72
2022/08/21 14:09:55;;;;;;;5.40;2.53;;;;;;;20.77;100.00;99114.47;4480351;31;34995;-74